CheckWX is a tool to help pilots better visualize weather data.  It is not intended as a substitute for an official pre-flight weather briefing.

13:06:12 UTC

LIRL TAF
Latina Airport
Latina, Italy
TAF LIRL 241100Z 2412/2421 22006KT 9999 SCT030

May-24@
12:00 UTC

May-24 @ 12:00 UTC

May-24@
21:00 UTC

May-24 @ 21:00 UTC

TAF LIRL 241100Z 2412/2421 22006KT 9999 SCT030
Wind
  • 220° at 6 KTS
Cloud Levels
  • Scattered at 3,000' AGL